createdAt,value
2019-06-20T00:02:08.640Z,19.25
2019-06-20T00:04:37.981Z,19.25
2019-06-20T00:07:07.270Z,19.27
2019-06-20T00:09:36.568Z,19.27
2019-06-20T00:12:06.001Z,19.24
2019-06-20T00:14:35.421Z,19.21
2019-06-20T00:17:04.757Z,19.14
2019-06-20T00:19:34.145Z,19.10
2019-06-20T00:22:03.542Z,19.05
2019-06-20T00:24:32.825Z,19.01
2019-06-20T00:27:02.101Z,18.97
2019-06-20T00:29:38.701Z,18.94
2019-06-20T00:32:08.013Z,18.91
2019-06-20T00:34:37.062Z,18.89
2019-06-20T00:37:06.490Z,18.88
2019-06-20T00:39:35.793Z,18.85
2019-06-20T00:42:05.085Z,18.84
2019-06-20T00:44:34.470Z,18.84
2019-06-20T00:47:03.687Z,18.84
2019-06-20T00:49:33.022Z,18.85
2019-06-20T00:52:02.318Z,18.82
2019-06-20T00:54:31.616Z,18.79
2019-06-20T00:57:00.930Z,18.77
2019-06-20T00:59:30.333Z,18.73
2019-06-20T01:01:59.510Z,18.67
2019-06-20T01:04:28.968Z,18.61
2019-06-20T01:06:58.325Z,18.53
2019-06-20T01:09:27.522Z,18.48
2019-06-20T01:11:57.756Z,18.40
2019-06-20T01:14:27.178Z,18.37
2019-06-20T01:16:56.460Z,18.33
2019-06-20T01:19:25.763Z,18.33
2019-06-20T01:21:55.177Z,18.28
2019-06-20T01:24:24.510Z,18.26
2019-06-20T01:26:53.789Z,18.25
2019-06-20T01:29:23.170Z,18.21
2019-06-20T01:31:52.623Z,18.16
2019-06-20T01:34:21.945Z,18.15
2019-06-20T01:36:51.247Z,18.14
2019-06-20T01:39:20.566Z,18.11
2019-06-20T01:41:49.789Z,18.10
2019-06-20T01:44:19.154Z,18.09
2019-06-20T01:46:48.392Z,18.10
2019-06-20T01:49:17.655Z,18.13
2019-06-20T01:51:46.855Z,18.14
2019-06-20T01:54:16.175Z,18.13
2019-06-20T01:56:45.572Z,18.13
2019-06-20T01:59:15.003Z,18.16
2019-06-20T02:01:44.294Z,18.16
2019-06-20T02:04:13.545Z,18.16
2019-06-20T02:06:42.801Z,18.15
2019-06-20T02:09:13.493Z,18.18
2019-06-20T02:11:42.832Z,18.20
2019-06-20T02:14:12.214Z,18.23
2019-06-20T02:16:41.531Z,18.25
2019-06-20T02:19:10.734Z,18.27
2019-06-20T02:21:40.026Z,18.26
2019-06-20T02:24:09.336Z,18.22
2019-06-20T02:26:38.531Z,18.22
2019-06-20T02:29:07.885Z,18.20
2019-06-20T02:31:37.201Z,18.15
2019-06-20T02:34:06.412Z,18.15
2019-06-20T02:36:35.805Z,18.14
2019-06-20T02:39:06.470Z,18.12
2019-06-20T02:41:35.889Z,18.12
2019-06-20T02:44:06.001Z,18.06
2019-06-20T02:46:35.299Z,18.03
2019-06-20T02:49:04.679Z,17.98
2019-06-20T02:51:36.208Z,17.95
2019-06-20T02:54:05.549Z,17.97
2019-06-20T02:56:34.719Z,17.93
2019-06-20T02:59:03.996Z,17.88
2019-06-20T03:01:33.208Z,17.85
2019-06-20T03:04:02.412Z,17.82
2019-06-20T03:06:31.675Z,17.79
2019-06-20T03:09:01.008Z,17.81
2019-06-20T03:11:30.320Z,17.85
2019-06-20T03:13:59.635Z,17.85
2019-06-20T03:16:28.831Z,17.84
2019-06-20T03:18:58.027Z,17.83
2019-06-20T03:21:27.289Z,17.81
2019-06-20T03:23:56.515Z,17.81
2019-06-20T03:26:25.712Z,17.79
2019-06-20T03:28:55.077Z,17.82
2019-06-20T03:31:24.375Z,17.84
2019-06-20T03:33:53.607Z,17.84
2019-06-20T03:36:22.858Z,17.82
2019-06-20T03:38:52.041Z,17.79
2019-06-20T03:41:21.247Z,17.79
2019-06-20T03:43:50.712Z,17.78
2019-06-20T03:46:19.879Z,17.80
2019-06-20T03:48:50.752Z,17.78
2019-06-20T03:51:20.013Z,17.77
2019-06-20T03:53:49.185Z,17.78
2019-06-20T03:56:19.959Z,17.76
2019-06-20T03:58:49.366Z,17.72
2019-06-20T04:01:18.814Z,17.70
2019-06-20T04:03:48.086Z,17.71
2019-06-20T04:06:17.511Z,17.70
2019-06-20T04:08:46.850Z,17.73
2019-06-20T04:11:16.160Z,17.73
2019-06-20T04:13:45.324Z,17.70
2019-06-20T04:16:14.622Z,17.68
2019-06-20T04:18:43.953Z,17.69
2019-06-20T04:21:13.303Z,17.68
2019-06-20T04:23:42.634Z,17.72
2019-06-20T04:26:11.803Z,17.69
2019-06-20T04:28:41.982Z,17.68
2019-06-20T04:31:11.299Z,17.66
2019-06-20T04:33:40.572Z,17.64
2019-06-20T04:36:09.846Z,17.63
2019-06-20T04:38:39.091Z,17.61
2019-06-20T04:41:08.460Z,17.60
2019-06-20T04:43:39.155Z,17.59
2019-06-20T04:46:09.867Z,17.58
2019-06-20T04:48:39.083Z,17.55
2019-06-20T04:51:10.674Z,17.53
2019-06-20T04:53:39.796Z,17.53
2019-06-20T04:56:09.119Z,17.51
2019-06-20T04:58:38.398Z,17.52
2019-06-20T05:01:14.077Z,17.49
2019-06-20T05:03:43.531Z,17.48
2019-06-20T05:06:12.741Z,17.44
2019-06-20T05:08:41.977Z,17.43
2019-06-20T05:11:11.431Z,17.43
2019-06-20T05:13:40.642Z,17.41
2019-06-20T05:16:09.937Z,17.44
2019-06-20T05:18:39.353Z,17.46
2019-06-20T05:21:08.555Z,17.47
2019-06-20T05:23:37.786Z,17.49
2019-06-20T05:26:07.020Z,17.49
2019-06-20T05:28:36.193Z,17.50
2019-06-20T05:31:05.699Z,17.48
2019-06-20T05:33:34.998Z,17.45
2019-06-20T05:36:04.459Z,17.48
2019-06-20T05:38:33.635Z,17.47
2019-06-20T05:41:03.013Z,17.47
2019-06-20T05:43:32.199Z,17.50
2019-06-20T05:46:09.732Z,17.47
2019-06-20T05:48:32.526Z,17.44
2019-06-20T05:51:01.833Z,17.40
2019-06-20T05:53:31.060Z,17.40
2019-06-20T05:56:00.320Z,17.39
2019-06-20T05:58:29.556Z,17.41
2019-06-20T06:00:58.734Z,17.40
2019-06-20T06:03:28.200Z,17.37
2019-06-20T06:05:57.520Z,17.38
2019-06-20T06:08:26.829Z,17.41
2019-06-20T06:10:56.248Z,17.43
2019-06-20T06:13:25.553Z,17.46
2019-06-20T06:15:54.872Z,17.47
2019-06-20T06:18:24.259Z,17.50
2019-06-20T06:20:53.454Z,17.55
2019-06-20T06:23:22.737Z,17.61
2019-06-20T06:25:52.045Z,17.64
2019-06-20T06:28:21.335Z,17.69
2019-06-20T06:30:50.558Z,17.71
2019-06-20T06:33:19.851Z,17.71
2019-06-20T06:35:49.794Z,17.75
2019-06-20T06:38:21.752Z,17.80
2019-06-20T06:40:51.139Z,17.85
2019-06-20T06:43:20.220Z,17.93
2019-06-20T06:45:50.095Z,17.98
2019-06-20T06:48:19.637Z,18.02
2019-06-20T06:50:48.840Z,18.08
2019-06-20T06:53:18.182Z,18.12
2019-06-20T06:55:47.932Z,18.19
2019-06-20T06:58:18.656Z,18.26
2019-06-20T07:00:47.922Z,18.30
2019-06-20T07:03:17.261Z,18.34
2019-06-20T07:05:46.878Z,18.41
2019-06-20T07:08:16.189Z,18.51
2019-06-20T07:10:45.786Z,18.59
2019-06-20T07:13:15.002Z,18.66
2019-06-20T07:15:44.492Z,18.72
2019-06-20T07:18:13.855Z,18.77
2019-06-20T07:20:43.041Z,18.83
2019-06-20T07:23:12.380Z,18.90
2019-06-20T07:25:41.752Z,18.97
2019-06-20T07:28:11.009Z,19.03
2019-06-20T07:30:40.340Z,19.08
2019-06-20T07:33:09.713Z,19.14
2019-06-20T07:35:41.844Z,19.20
2019-06-20T07:38:10.330Z,19.27
2019-06-20T07:40:39.522Z,19.33
2019-06-20T07:43:08.826Z,19.41
2019-06-20T07:45:38.192Z,19.46
2019-06-20T07:48:07.455Z,19.54
2019-06-20T07:50:39.333Z,19.62
2019-06-20T07:53:07.641Z,19.75
2019-06-20T07:55:36.738Z,19.83
2019-06-20T07:58:05.962Z,19.94
2019-06-20T08:00:35.237Z,20.16
2019-06-20T08:03:04.678Z,20.28
2019-06-20T08:05:33.883Z,20.49
2019-06-20T08:08:03.729Z,20.73
2019-06-20T08:10:32.917Z,20.94
2019-06-20T08:13:02.116Z,21.18
2019-06-20T08:15:31.336Z,21.43
2019-06-20T08:18:13.535Z,21.55
2019-06-20T08:20:42.885Z,21.66
2019-06-20T08:23:12.025Z,21.77
2019-06-20T08:25:41.241Z,21.85
2019-06-20T08:28:10.404Z,21.89
2019-06-20T08:30:39.732Z,21.87
2019-06-20T08:33:11.849Z,21.82
2019-06-20T08:35:42.956Z,21.83
2019-06-20T08:38:12.803Z,21.75
2019-06-20T08:40:41.991Z,21.66
2019-06-20T08:43:11.395Z,21.73
2019-06-20T08:45:40.689Z,21.77
2019-06-20T08:48:09.862Z,21.79
2019-06-20T08:50:39.445Z,21.84
2019-06-20T08:53:08.803Z,21.77
2019-06-20T08:55:38.036Z,21.76
2019-06-20T08:58:07.322Z,21.81
2019-06-20T09:00:37.069Z,21.88
2019-06-20T09:03:06.864Z,21.86
2019-06-20T09:05:36.153Z,21.83
2019-06-20T09:08:11.160Z,21.91
2019-06-20T09:10:43.486Z,21.97
2019-06-20T09:13:12.890Z,22.05
2019-06-20T09:15:42.420Z,22.13
2019-06-20T09:18:11.678Z,22.22
2019-06-20T09:20:41.103Z,22.26
2019-06-20T09:23:10.406Z,22.33
2019-06-20T09:25:39.815Z,22.50
2019-06-20T09:28:09.127Z,22.59
2019-06-20T09:30:38.422Z,22.63
2019-06-20T09:33:07.813Z,22.56
2019-06-20T09:35:37.041Z,22.54
2019-06-20T09:38:06.272Z,22.50
2019-06-20T09:40:35.557Z,22.58
2019-06-20T09:43:04.876Z,22.78
2019-06-20T09:45:34.125Z,22.82
2019-06-20T09:48:03.398Z,22.99
2019-06-20T09:50:32.832Z,23.14
2019-06-20T09:53:02.219Z,23.18
2019-06-20T09:55:31.620Z,23.29
2019-06-20T09:58:00.808Z,23.40
2019-06-20T10:00:30.041Z,23.42
2019-06-20T10:02:59.354Z,23.48
2019-06-20T10:05:28.949Z,23.57
2019-06-20T10:07:58.257Z,23.62
2019-06-20T10:10:30.492Z,23.65
2019-06-20T10:12:59.724Z,23.69
2019-06-20T10:15:32.747Z,23.74
2019-06-20T10:18:02.215Z,23.85
2019-06-20T10:20:31.411Z,23.88
2019-06-20T10:23:00.610Z,23.92
2019-06-20T10:25:30.014Z,23.95
2019-06-20T10:27:59.333Z,24.02
2019-06-20T10:30:28.704Z,23.91
2019-06-20T10:32:58.122Z,23.85
2019-06-20T10:35:27.242Z,23.88
2019-06-20T10:37:57.229Z,23.99
2019-06-20T10:40:26.656Z,24.08
2019-06-20T10:42:56.920Z,24.27
2019-06-20T10:45:26.562Z,24.19
2019-06-20T10:47:56.200Z,24.02
2019-06-20T10:50:25.778Z,24.04
2019-06-20T10:52:55.820Z,24.14
2019-06-20T10:55:25.472Z,24.23
2019-06-20T10:57:55.227Z,24.24
2019-06-20T11:00:32.922Z,24.38
2019-06-20T11:02:56.956Z,24.51
2019-06-20T11:05:26.300Z,24.57
2019-06-20T11:07:55.706Z,24.69
2019-06-20T11:10:25.032Z,24.59
2019-06-20T11:12:56.224Z,24.73
2019-06-20T11:15:25.142Z,24.91
2019-06-20T11:17:56.736Z,25.02
2019-06-20T11:20:27.479Z,25.13
2019-06-20T11:22:56.692Z,25.28
2019-06-20T11:25:26.196Z,25.30
2019-06-20T11:27:55.546Z,25.32
2019-06-20T11:30:45.001Z,25.23
2019-06-20T11:33:01.637Z,25.25
2019-06-20T11:35:31.001Z,25.18
2019-06-20T11:38:00.215Z,25.21
2019-06-20T11:40:29.434Z,25.18
2019-06-20T11:42:58.798Z,25.23
2019-06-20T11:45:28.137Z,25.24
2019-06-20T11:47:57.343Z,25.19
2019-06-20T11:50:26.601Z,25.33
2019-06-20T11:52:55.912Z,25.38
2019-06-20T11:55:25.142Z,25.42
2019-06-20T11:57:56.823Z,25.45
2019-06-20T12:00:26.310Z,25.45
2019-06-20T12:02:55.571Z,25.46
2019-06-20T12:05:24.968Z,25.53
2019-06-20T12:07:54.624Z,25.78
2019-06-20T12:10:24.534Z,25.82
2019-06-20T12:12:54.208Z,25.87
2019-06-20T12:15:23.723Z,25.94
2019-06-20T12:17:55.532Z,25.91
2019-06-20T12:20:24.762Z,25.92
2019-06-20T12:22:54.449Z,25.98
2019-06-20T12:25:32.236Z,26.13
2019-06-20T12:28:01.732Z,26.18
2019-06-20T12:30:32.431Z,26.12
2019-06-20T12:33:01.915Z,26.24
2019-06-20T12:35:31.416Z,26.10
2019-06-20T12:38:00.747Z,26.22
2019-06-20T12:40:30.217Z,25.94
2019-06-20T12:42:59.824Z,25.82
2019-06-20T12:45:29.336Z,25.71
2019-06-20T12:47:58.827Z,25.63
2019-06-20T12:50:28.504Z,25.82
2019-06-20T12:52:58.739Z,25.88
2019-06-20T12:55:28.215Z,25.86
